Orbital elements of IRIDIUM 33 DEB
| Launched | 13 September 1997 |
| Flight ended | – |
| Launch site | Tyuratam Missile and Space Center, Kazakhstan (Also known as Baikonur Cosmodrome) |
| Owner | United States |
| NORAD ID | 34097 |
| Date fetched |
Epoch osculation |
Inc. [°] |
Ecc. | RA asc node [hr] |
Arg Peri. [°] |
Mean anom [°] |
Mean motion [rev/day] |
Abs. mag |
| Date fetched |
Epoch osculation |
Inc. [°] |
Ecc. | RA asc node [hr] |
Arg Peri. [°] |
Mean anom [°] |
Mean motion [rev/day] |
Abs. mag |
| 2026 May 01 17:56 | 2026 Apr 30 10:56:26 | 86.1942 | 0.00796 | 20.0082 | 267.9078 | 91.3000 | 14.35856 | – |
| 2026 Apr 30 17:56 | 2026 Apr 30 10:56:26 | 86.1942 | 0.00796 | 20.0082 | 267.9078 | 91.3000 | 14.35856 | – |
| 2026 Apr 29 17:57 | 2026 Apr 24 12:46:25 | 86.1948 | 0.00798 | 20.1830 | 287.7441 | 91.3000 | 14.35856 | – |
| 2026 Apr 28 17:56 | 2026 Apr 24 12:46:25 | 86.1948 | 0.00798 | 20.1830 | 287.7441 | 91.3000 | 14.35856 | – |
| 2026 Apr 27 17:58 | 2026 Apr 24 12:46:25 | 86.1948 | 0.00798 | 20.1830 | 287.7441 | 91.3000 | 14.35856 | – |
| 2026 Apr 26 17:58 | 2026 Apr 24 12:46:25 | 86.1948 | 0.00798 | 20.1830 | 287.7441 | 91.3000 | 14.35856 | – |
| 2026 Apr 25 17:58 | 2026 Apr 24 12:46:25 | 86.1948 | 0.00798 | 20.1830 | 287.7441 | 91.3000 | 14.35856 | – |
| 2026 Apr 24 17:59 | 2026 Apr 24 12:46:25 | 86.1948 | 0.00798 | 20.1830 | 287.7441 | 91.3000 | 14.35856 | – |
| 2026 Apr 23 17:57 | 2026 Apr 19 12:20:53 | 86.1948 | 0.00801 | 20.3311 | 304.4798 | 91.3000 | 14.35856 | – |
| 2026 Apr 22 17:57 | 2026 Apr 19 12:20:53 | 86.1948 | 0.00801 | 20.3311 | 304.4798 | 91.3000 | 14.35856 | – |
| 2026 Apr 21 17:57 | 2026 Apr 19 12:20:53 | 86.1948 | 0.00801 | 20.3311 | 304.4798 | 91.3000 | 14.35856 | – |
| 2026 Apr 20 17:57 | 2026 Apr 19 12:20:53 | 86.1948 | 0.00801 | 20.3311 | 304.4798 | 91.3000 | 14.35856 | – |
| 2026 Apr 19 17:58 | 2026 Apr 19 12:20:53 | 86.1948 | 0.00801 | 20.3311 | 304.4798 | 91.3000 | 14.35856 | – |
| 2026 Apr 18 17:56 | 2026 Apr 13 00:47:46 | 86.1959 | 0.00807 | 20.5224 | 326.0245 | 91.3000 | 14.35856 | – |
| 2026 Apr 16 17:57 | 2026 Apr 13 00:47:46 | 86.1959 | 0.00807 | 20.5224 | 326.0245 | 91.3000 | 14.35856 | – |
| 2026 Apr 14 17:57 | 2026 Apr 13 00:47:46 | 86.1959 | 0.00807 | 20.5224 | 326.0245 | 91.3000 | 14.35856 | – |
| 2026 Apr 13 17:57 | 2026 Apr 13 00:47:46 | 86.1959 | 0.00807 | 20.5224 | 326.0245 | 91.3000 | 14.35856 | – |
| 2026 Apr 12 17:57 | 2026 Apr 08 13:44:55 | 86.1964 | 0.00812 | 20.6540 | 340.7335 | 91.3000 | 14.35856 | – |
| 2026 Apr 11 17:57 | 2026 Apr 08 13:44:55 | 86.1964 | 0.00812 | 20.6540 | 340.7335 | 91.3000 | 14.35856 | – |
| 2026 Apr 10 17:58 | 2026 Apr 08 13:44:55 | 86.1964 | 0.00812 | 20.6540 | 340.7335 | 91.3000 | 14.35856 | – |
| 2026 Apr 09 18:01 | 2026 Apr 08 13:44:55 | 86.1964 | 0.00812 | 20.6540 | 340.7335 | 91.3000 | 14.35856 | – |
| 2026 Apr 08 17:57 | 2026 Apr 08 13:44:55 | 86.1964 | 0.00812 | 20.6540 | 340.7335 | 91.3000 | 14.35856 | – |
| 2026 Apr 07 17:57 | 2026 Apr 02 00:31:09 | 86.1976 | 0.00821 | 20.8472 | 2.1035 | 91.3000 | 14.35856 | – |
| 2026 Apr 06 17:57 | 2026 Apr 02 00:31:09 | 86.1976 | 0.00821 | 20.8472 | 2.1035 | 91.3000 | 14.35856 | – |
| 2026 Apr 05 17:56 | 2026 Apr 02 00:31:09 | 86.1976 | 0.00821 | 20.8472 | 2.1035 | 91.3000 | 14.35856 | – |
| 2026 Apr 04 17:57 | 2026 Apr 02 00:31:09 | 86.1976 | 0.00821 | 20.8472 | 2.1035 | 91.3000 | 14.35856 | – |